<?xml version="1.0" encoding="UTF-8" standalone="no" ?>
<gpx xmlns="http://www.topografix.com/GPX/1/1" xmlns:xsi="http://www.w3.org/2001/XMLSchema-instance" xsi:schemaLocation="http://www.topografix.com/GPX/1/1 http://www.topografix.com/GPX/1/1/gpx.xsd" version="1.1" creator="VisuGPX - https://www.visugpx.com">
  <metadata>
    <name>sortie vtt vendredi 1 octobre 2013</name>
    <desc><![CDATA[sortie vtt de reprise avant le lancement de la saison de ski]]></desc>
  </metadata>
  <trk>
    <name><![CDATA[sortie vtt vendredi 1 octobre 2013_1]]></name>
    <trkseg>
      <trkpt lat="43.1226" lon="1.60776">
        <ele>275.75174</ele>
        <time>2013-11-01T14:37:01Z</time>
      </trkpt>
      <trkpt lat="43.12215" lon="1.60828">
        <ele>225.616669</ele>
        <time>2013-11-01T14:39:00Z</time>
      </trkpt>
      <trkpt lat="43.12253" lon="1.60861">
        <ele>221.99292</ele>
        <time>2013-11-01T14:39:50Z</time>
      </trkpt>
      <trkpt lat="43.12147" lon="1.60845">
        <ele>222.008423</ele>
        <time>2013-11-01T14:40:24Z</time>
      </trkpt>
      <trkpt lat="43.12194" lon="1.60822">
        <ele>228.059906</ele>
        <time>2013-11-01T14:40:56Z</time>
      </trkpt>
      <trkpt lat="43.12259" lon="1.60777">
        <ele>272.999908</ele>
        <time>2013-11-01T14:42:20Z</time>
      </trkpt>
      <trkpt lat="43.12215" lon="1.60812">
        <ele>205.615631</ele>
        <time>2013-11-01T14:45:43Z</time>
      </trkpt>
      <trkpt lat="43.1216" lon="1.60793">
        <ele>322.270172</ele>
        <time>2013-11-01T14:46:25Z</time>
      </trkpt>
      <trkpt lat="43.12115" lon="1.60854">
        <ele>276.075928</ele>
        <time>2013-11-01T14:46:45Z</time>
      </trkpt>
      <trkpt lat="43.12065" lon="1.6097">
        <ele>277.150452</ele>
        <time>2013-11-01T14:47:05Z</time>
      </trkpt>
      <trkpt lat="43.11993" lon="1.6087">
        <ele>270.750031</ele>
        <time>2013-11-01T14:47:25Z</time>
      </trkpt>
      <trkpt lat="43.11878" lon="1.60898">
        <ele>273.872925</ele>
        <time>2013-11-01T14:47:46Z</time>
      </trkpt>
      <trkpt lat="43.11765" lon="1.60875">
        <ele>269.081665</ele>
        <time>2013-11-01T14:48:06Z</time>
      </trkpt>
      <trkpt lat="43.1168" lon="1.60799">
        <ele>277.947815</ele>
        <time>2013-11-01T14:48:27Z</time>
      </trkpt>
      <trkpt lat="43.11591" lon="1.60721">
        <ele>273.817291</ele>
        <time>2013-11-01T14:48:47Z</time>
      </trkpt>
      <trkpt lat="43.1149" lon="1.60623">
        <ele>273.422455</ele>
        <time>2013-11-01T14:49:07Z</time>
      </trkpt>
      <trkpt lat="43.11408" lon="1.60538">
        <ele>276.777496</ele>
        <time>2013-11-01T14:49:28Z</time>
      </trkpt>
      <trkpt lat="43.11337" lon="1.60507">
        <ele>282.67038</ele>
        <time>2013-11-01T14:49:49Z</time>
      </trkpt>
      <trkpt lat="43.11292" lon="1.6038">
        <ele>277.987335</ele>
        <time>2013-11-01T14:50:10Z</time>
      </trkpt>
      <trkpt lat="43.11257" lon="1.60275">
        <ele>282.054993</ele>
        <time>2013-11-01T14:50:30Z</time>
      </trkpt>
      <trkpt lat="43.11269" lon="1.60158">
        <ele>287.148712</ele>
        <time>2013-11-01T14:50:51Z</time>
      </trkpt>
      <trkpt lat="43.11314" lon="1.60081">
        <ele>287.734528</ele>
        <time>2013-11-01T14:51:11Z</time>
      </trkpt>
      <trkpt lat="43.1132" lon="1.59983">
        <ele>291.12088</ele>
        <time>2013-11-01T14:51:32Z</time>
      </trkpt>
      <trkpt lat="43.1136" lon="1.59911">
        <ele>301.01059</ele>
        <time>2013-11-01T14:51:52Z</time>
      </trkpt>
      <trkpt lat="43.11381" lon="1.59843">
        <ele>302.230194</ele>
        <time>2013-11-01T14:52:13Z</time>
      </trkpt>
      <trkpt lat="43.11392" lon="1.59784">
        <ele>302.755981</ele>
        <time>2013-11-01T14:52:34Z</time>
      </trkpt>
      <trkpt lat="43.1142" lon="1.59733">
        <ele>308.267548</ele>
        <time>2013-11-01T14:52:54Z</time>
      </trkpt>
      <trkpt lat="43.1143" lon="1.59673">
        <ele>308.633514</ele>
        <time>2013-11-01T14:53:15Z</time>
      </trkpt>
      <trkpt lat="43.11458" lon="1.59624">
        <ele>315.994446</ele>
        <time>2013-11-01T14:53:37Z</time>
      </trkpt>
      <trkpt lat="43.11447" lon="1.59558">
        <ele>325.488007</ele>
        <time>2013-11-01T14:53:57Z</time>
      </trkpt>
      <trkpt lat="43.1141" lon="1.59594">
        <ele>339.539124</ele>
        <time>2013-11-01T14:54:39Z</time>
      </trkpt>
      <trkpt lat="43.11402" lon="1.59532">
        <ele>334.134827</ele>
        <time>2013-11-01T14:55:02Z</time>
      </trkpt>
      <trkpt lat="43.11402" lon="1.59468">
        <ele>337.131226</ele>
        <time>2013-11-01T14:55:23Z</time>
      </trkpt>
      <trkpt lat="43.11407" lon="1.59407">
        <ele>338.714844</ele>
        <time>2013-11-01T14:55:44Z</time>
      </trkpt>
      <trkpt lat="43.11407" lon="1.59345">
        <ele>348.237</ele>
        <time>2013-11-01T14:56:06Z</time>
      </trkpt>
      <trkpt lat="43.11382" lon="1.59292">
        <ele>350.355255</ele>
        <time>2013-11-01T14:56:27Z</time>
      </trkpt>
      <trkpt lat="43.11335" lon="1.59274">
        <ele>349.998779</ele>
        <time>2013-11-01T14:56:48Z</time>
      </trkpt>
      <trkpt lat="43.1129" lon="1.59282">
        <ele>354.815765</ele>
        <time>2013-11-01T14:57:09Z</time>
      </trkpt>
      <trkpt lat="43.11244" lon="1.59268">
        <ele>359.32666</ele>
        <time>2013-11-01T14:57:30Z</time>
      </trkpt>
      <trkpt lat="43.1121" lon="1.59226">
        <ele>361.508606</ele>
        <time>2013-11-01T14:57:51Z</time>
      </trkpt>
      <trkpt lat="43.11177" lon="1.59183">
        <ele>364.909515</ele>
        <time>2013-11-01T14:58:12Z</time>
      </trkpt>
      <trkpt lat="43.11156" lon="1.59127">
        <ele>368.458954</ele>
        <time>2013-11-01T14:58:32Z</time>
      </trkpt>
      <trkpt lat="43.1115" lon="1.59058">
        <ele>373.574127</ele>
        <time>2013-11-01T14:58:53Z</time>
      </trkpt>
      <trkpt lat="43.1111" lon="1.59003">
        <ele>375.080841</ele>
        <time>2013-11-01T14:59:13Z</time>
      </trkpt>
      <trkpt lat="43.11074" lon="1.5894">
        <ele>380.410431</ele>
        <time>2013-11-01T14:59:34Z</time>
      </trkpt>
      <trkpt lat="43.11045" lon="1.58879">
        <ele>378.935425</ele>
        <time>2013-11-01T14:59:54Z</time>
      </trkpt>
      <trkpt lat="43.11049" lon="1.5878">
        <ele>383.838348</ele>
        <time>2013-11-01T15:00:15Z</time>
      </trkpt>
      <trkpt lat="43.11054" lon="1.58696">
        <ele>382.841919</ele>
        <time>2013-11-01T15:00:35Z</time>
      </trkpt>
      <trkpt lat="43.1103" lon="1.58624">
        <ele>394.444031</ele>
        <time>2013-11-01T15:00:57Z</time>
      </trkpt>
      <trkpt lat="43.11032" lon="1.58554">
        <ele>390.853058</ele>
        <time>2013-11-01T15:01:17Z</time>
      </trkpt>
      <trkpt lat="43.11076" lon="1.5852">
        <ele>399.002472</ele>
        <time>2013-11-01T15:01:37Z</time>
      </trkpt>
      <trkpt lat="43.11126" lon="1.58486">
        <ele>399.666016</ele>
        <time>2013-11-01T15:01:58Z</time>
      </trkpt>
      <trkpt lat="43.11164" lon="1.58436">
        <ele>403.197357</ele>
        <time>2013-11-01T15:02:20Z</time>
      </trkpt>
      <trkpt lat="43.11197" lon="1.58382">
        <ele>406.671326</ele>
        <time>2013-11-01T15:02:40Z</time>
      </trkpt>
      <trkpt lat="43.11245" lon="1.58354">
        <ele>413.197876</ele>
        <time>2013-11-01T15:03:01Z</time>
      </trkpt>
      <trkpt lat="43.11292" lon="1.58335">
        <ele>411.489014</ele>
        <time>2013-11-01T15:03:21Z</time>
      </trkpt>
      <trkpt lat="43.11322" lon="1.58285">
        <ele>412.294464</ele>
        <time>2013-11-01T15:03:42Z</time>
      </trkpt>
      <trkpt lat="43.11365" lon="1.58253">
        <ele>418.750244</ele>
        <time>2013-11-01T15:04:03Z</time>
      </trkpt>
      <trkpt lat="43.11406" lon="1.58304">
        <ele>421.626678</ele>
        <time>2013-11-01T15:04:24Z</time>
      </trkpt>
      <trkpt lat="43.11417" lon="1.584">
        <ele>423.410706</ele>
        <time>2013-11-01T15:04:45Z</time>
      </trkpt>
      <trkpt lat="43.11441" lon="1.58491">
        <ele>427.495697</ele>
        <time>2013-11-01T15:05:06Z</time>
      </trkpt>
      <trkpt lat="43.11468" lon="1.58572">
        <ele>427.80011</ele>
        <time>2013-11-01T15:05:27Z</time>
      </trkpt>
      <trkpt lat="43.11557" lon="1.58504">
        <ele>420.098724</ele>
        <time>2013-11-01T15:05:48Z</time>
      </trkpt>
      <trkpt lat="43.11684" lon="1.58474">
        <ele>415.860443</ele>
        <time>2013-11-01T15:06:09Z</time>
      </trkpt>
      <trkpt lat="43.11798" lon="1.58545">
        <ele>406.069611</ele>
        <time>2013-11-01T15:06:29Z</time>
      </trkpt>
      <trkpt lat="43.11912" lon="1.58686">
        <ele>394.45752</ele>
        <time>2013-11-01T15:06:50Z</time>
      </trkpt>
      <trkpt lat="43.12004" lon="1.5877">
        <ele>399.080139</ele>
        <time>2013-11-01T15:07:11Z</time>
      </trkpt>
      <trkpt lat="43.12082" lon="1.58746">
        <ele>402.56601</ele>
        <time>2013-11-01T15:07:32Z</time>
      </trkpt>
      <trkpt lat="43.12185" lon="1.58753">
        <ele>405.910065</ele>
        <time>2013-11-01T15:07:52Z</time>
      </trkpt>
      <trkpt lat="43.12287" lon="1.58728">
        <ele>401.129425</ele>
        <time>2013-11-01T15:08:12Z</time>
      </trkpt>
      <trkpt lat="43.12402" lon="1.58688">
        <ele>395.879639</ele>
        <time>2013-11-01T15:08:32Z</time>
      </trkpt>
      <trkpt lat="43.12541" lon="1.58629">
        <ele>399.866852</ele>
        <time>2013-11-01T15:08:53Z</time>
      </trkpt>
      <trkpt lat="43.12613" lon="1.58563">
        <ele>397.309753</ele>
        <time>2013-11-01T15:09:13Z</time>
      </trkpt>
      <trkpt lat="43.12566" lon="1.58584">
        <ele>402.277069</ele>
        <time>2013-11-01T15:09:43Z</time>
      </trkpt>
      <trkpt lat="43.1248" lon="1.58678">
        <ele>398.938904</ele>
        <time>2013-11-01T15:10:04Z</time>
      </trkpt>
      <trkpt lat="43.12438" lon="1.58769">
        <ele>389.726227</ele>
        <time>2013-11-01T15:10:24Z</time>
      </trkpt>
      <trkpt lat="43.12404" lon="1.58847">
        <ele>389.677185</ele>
        <time>2013-11-01T15:10:45Z</time>
      </trkpt>
      <trkpt lat="43.12387" lon="1.58906">
        <ele>392.667572</ele>
        <time>2013-11-01T15:11:07Z</time>
      </trkpt>
      <trkpt lat="43.12354" lon="1.58956">
        <ele>393.765656</ele>
        <time>2013-11-01T15:12:49Z</time>
      </trkpt>
      <trkpt lat="43.12341" lon="1.59106">
        <ele>363.055969</ele>
        <time>2013-11-01T15:13:10Z</time>
      </trkpt>
      <trkpt lat="43.12345" lon="1.5928">
        <ele>347.915894</ele>
        <time>2013-11-01T15:13:31Z</time>
      </trkpt>
      <trkpt lat="43.12343" lon="1.59463">
        <ele>336.677734</ele>
        <time>2013-11-01T15:13:51Z</time>
      </trkpt>
      <trkpt lat="43.12368" lon="1.59639">
        <ele>305.999695</ele>
        <time>2013-11-01T15:14:11Z</time>
      </trkpt>
      <trkpt lat="43.12359" lon="1.59847">
        <ele>290.261902</ele>
        <time>2013-11-01T15:14:32Z</time>
      </trkpt>
      <trkpt lat="43.1239" lon="1.59994">
        <ele>276.22525</ele>
        <time>2013-11-01T15:14:53Z</time>
      </trkpt>
      <trkpt lat="43.12407" lon="1.60173">
        <ele>276.825653</ele>
        <time>2013-11-01T15:15:14Z</time>
      </trkpt>
      <trkpt lat="43.12509" lon="1.60215">
        <ele>267.202728</ele>
        <time>2013-11-01T15:15:34Z</time>
      </trkpt>
      <trkpt lat="43.12575" lon="1.60336">
        <ele>269.250092</ele>
        <time>2013-11-01T15:15:55Z</time>
      </trkpt>
      <trkpt lat="43.12682" lon="1.60444">
        <ele>260.355286</ele>
        <time>2013-11-01T15:16:15Z</time>
      </trkpt>
      <trkpt lat="43.12791" lon="1.6049">
        <ele>266.916473</ele>
        <time>2013-11-01T15:16:36Z</time>
      </trkpt>
      <trkpt lat="43.12884" lon="1.60527">
        <ele>261.379669</ele>
        <time>2013-11-01T15:16:57Z</time>
      </trkpt>
      <trkpt lat="43.12925" lon="1.60479">
        <ele>262.527618</ele>
        <time>2013-11-01T15:17:18Z</time>
      </trkpt>
      <trkpt lat="43.12973" lon="1.60415">
        <ele>264.535461</ele>
        <time>2013-11-01T15:17:38Z</time>
      </trkpt>
      <trkpt lat="43.13002" lon="1.60366">
        <ele>263.589508</ele>
        <time>2013-11-01T15:18:01Z</time>
      </trkpt>
      <trkpt lat="43.13049" lon="1.60282">
        <ele>262.105988</ele>
        <time>2013-11-01T15:18:21Z</time>
      </trkpt>
      <trkpt lat="43.13081" lon="1.60201">
        <ele>266.627594</ele>
        <time>2013-11-01T15:18:41Z</time>
      </trkpt>
      <trkpt lat="43.13127" lon="1.60117">
        <ele>263.390259</ele>
        <time>2013-11-01T15:19:02Z</time>
      </trkpt>
      <trkpt lat="43.13155" lon="1.60027">
        <ele>259.899933</ele>
        <time>2013-11-01T15:19:22Z</time>
      </trkpt>
      <trkpt lat="43.13192" lon="1.5995">
        <ele>258.900665</ele>
        <time>2013-11-01T15:19:43Z</time>
      </trkpt>
      <trkpt lat="43.13187" lon="1.5986">
        <ele>254.368835</ele>
        <time>2013-11-01T15:20:04Z</time>
      </trkpt>
      <trkpt lat="43.1321" lon="1.59764">
        <ele>266.133118</ele>
        <time>2013-11-01T15:20:25Z</time>
      </trkpt>
      <trkpt lat="43.13253" lon="1.59723">
        <ele>257.069153</ele>
        <time>2013-11-01T15:20:45Z</time>
      </trkpt>
      <trkpt lat="43.13319" lon="1.59666">
        <ele>264.471558</ele>
        <time>2013-11-01T15:21:06Z</time>
      </trkpt>
      <trkpt lat="43.13391" lon="1.59667">
        <ele>260.221741</ele>
        <time>2013-11-01T15:21:26Z</time>
      </trkpt>
      <trkpt lat="43.13446" lon="1.59691">
        <ele>258.783905</ele>
        <time>2013-11-01T15:21:47Z</time>
      </trkpt>
      <trkpt lat="43.13535" lon="1.59735">
        <ele>259.41507</ele>
        <time>2013-11-01T15:22:08Z</time>
      </trkpt>
      <trkpt lat="43.13592" lon="1.59749">
        <ele>255.90509</ele>
        <time>2013-11-01T15:22:28Z</time>
      </trkpt>
      <trkpt lat="43.13664" lon="1.59824">
        <ele>251.771759</ele>
        <time>2013-11-01T15:22:49Z</time>
      </trkpt>
      <trkpt lat="43.13698" lon="1.59747">
        <ele>255.591095</ele>
        <time>2013-11-01T15:23:10Z</time>
      </trkpt>
      <trkpt lat="43.13682" lon="1.59658">
        <ele>255.040131</ele>
        <time>2013-11-01T15:23:31Z</time>
      </trkpt>
      <trkpt lat="43.1367" lon="1.59578">
        <ele>252.508606</ele>
        <time>2013-11-01T15:23:51Z</time>
      </trkpt>
      <trkpt lat="43.13659" lon="1.59499">
        <ele>257.670197</ele>
        <time>2013-11-01T15:24:12Z</time>
      </trkpt>
      <trkpt lat="43.13687" lon="1.59438">
        <ele>252.876984</ele>
        <time>2013-11-01T15:24:32Z</time>
      </trkpt>
      <trkpt lat="43.13772" lon="1.59422">
        <ele>257.717865</ele>
        <time>2013-11-01T15:24:53Z</time>
      </trkpt>
      <trkpt lat="43.13841" lon="1.5941">
        <ele>255.741058</ele>
        <time>2013-11-01T15:25:14Z</time>
      </trkpt>
      <trkpt lat="43.13894" lon="1.5939">
        <ele>261.410675</ele>
        <time>2013-11-01T15:25:35Z</time>
      </trkpt>
      <trkpt lat="43.13899" lon="1.59327">
        <ele>262.604858</ele>
        <time>2013-11-01T15:26:03Z</time>
      </trkpt>
      <trkpt lat="43.13909" lon="1.59261">
        <ele>265.74234</ele>
        <time>2013-11-01T15:26:24Z</time>
      </trkpt>
      <trkpt lat="43.13894" lon="1.59202">
        <ele>270.197083</ele>
        <time>2013-11-01T15:26:52Z</time>
      </trkpt>
      <trkpt lat="43.13856" lon="1.59166">
        <ele>269.654205</ele>
        <time>2013-11-01T15:27:15Z</time>
      </trkpt>
      <trkpt lat="43.13813" lon="1.59147">
        <ele>281.364105</ele>
        <time>2013-11-01T15:27:52Z</time>
      </trkpt>
      <trkpt lat="43.1378" lon="1.59105">
        <ele>282.977966</ele>
        <time>2013-11-01T15:28:36Z</time>
      </trkpt>
      <trkpt lat="43.13756" lon="1.59052">
        <ele>299.59024</ele>
        <time>2013-11-01T15:31:57Z</time>
      </trkpt>
      <trkpt lat="43.13742" lon="1.58993">
        <ele>298.769836</ele>
        <time>2013-11-01T15:32:28Z</time>
      </trkpt>
      <trkpt lat="43.13726" lon="1.58935">
        <ele>309.894531</ele>
        <time>2013-11-01T15:33:02Z</time>
      </trkpt>
      <trkpt lat="43.13762" lon="1.58896">
        <ele>320.309875</ele>
        <time>2013-11-01T15:33:54Z</time>
      </trkpt>
      <trkpt lat="43.13779" lon="1.58833">
        <ele>320.14035</ele>
        <time>2013-11-01T15:34:15Z</time>
      </trkpt>
      <trkpt lat="43.13808" lon="1.58783">
        <ele>316.35672</ele>
        <time>2013-11-01T15:34:44Z</time>
      </trkpt>
      <trkpt lat="43.13846" lon="1.58749">
        <ele>320.812317</ele>
        <time>2013-11-01T15:35:12Z</time>
      </trkpt>
      <trkpt lat="43.13881" lon="1.58708">
        <ele>325.346375</ele>
        <time>2013-11-01T15:35:38Z</time>
      </trkpt>
      <trkpt lat="43.13924" lon="1.58684">
        <ele>326.791046</ele>
        <time>2013-11-01T15:36:00Z</time>
      </trkpt>
      <trkpt lat="43.13984" lon="1.5868">
        <ele>332.180908</ele>
        <time>2013-11-01T15:36:20Z</time>
      </trkpt>
      <trkpt lat="43.14073" lon="1.58662">
        <ele>327.421478</ele>
        <time>2013-11-01T15:36:41Z</time>
      </trkpt>
      <trkpt lat="43.14077" lon="1.586">
        <ele>337.712189</ele>
        <time>2013-11-01T15:37:11Z</time>
      </trkpt>
      <trkpt lat="43.1408" lon="1.58537">
        <ele>330.59726</ele>
        <time>2013-11-01T15:37:36Z</time>
      </trkpt>
      <trkpt lat="43.14064" lon="1.58415">
        <ele>330.219513</ele>
        <time>2013-11-01T15:37:56Z</time>
      </trkpt>
      <trkpt lat="43.14079" lon="1.58301">
        <ele>329.70752</ele>
        <time>2013-11-01T15:38:16Z</time>
      </trkpt>
      <trkpt lat="43.14105" lon="1.58157">
        <ele>314.895691</ele>
        <time>2013-11-01T15:38:37Z</time>
      </trkpt>
      <trkpt lat="43.14139" lon="1.5797">
        <ele>298.480072</ele>
        <time>2013-11-01T15:38:57Z</time>
      </trkpt>
      <trkpt lat="43.14171" lon="1.57848">
        <ele>304.424957</ele>
        <time>2013-11-01T15:39:18Z</time>
      </trkpt>
      <trkpt lat="43.14177" lon="1.57732">
        <ele>296.182648</ele>
        <time>2013-11-01T15:39:38Z</time>
      </trkpt>
      <trkpt lat="43.14194" lon="1.57578">
        <ele>274.845428</ele>
        <time>2013-11-01T15:39:58Z</time>
      </trkpt>
      <trkpt lat="43.14257" lon="1.57476">
        <ele>266.512665</ele>
        <time>2013-11-01T15:40:19Z</time>
      </trkpt>
      <trkpt lat="43.14301" lon="1.57368">
        <ele>256.976898</ele>
        <time>2013-11-01T15:40:39Z</time>
      </trkpt>
      <trkpt lat="43.14369" lon="1.57413">
        <ele>260.857971</ele>
        <time>2013-11-01T15:40:59Z</time>
      </trkpt>
      <trkpt lat="43.1438" lon="1.57346">
        <ele>281.344757</ele>
        <time>2013-11-01T15:42:41Z</time>
      </trkpt>
      <trkpt lat="43.1438" lon="1.57275">
        <ele>270.93692</ele>
        <time>2013-11-01T15:43:19Z</time>
      </trkpt>
      <trkpt lat="43.14395" lon="1.57217">
        <ele>270.082672</ele>
        <time>2013-11-01T15:43:40Z</time>
      </trkpt>
      <trkpt lat="43.14436" lon="1.57245">
        <ele>263.466187</ele>
        <time>2013-11-01T15:44:04Z</time>
      </trkpt>
      <trkpt lat="43.14483" lon="1.57253">
        <ele>275.902771</ele>
        <time>2013-11-01T15:44:33Z</time>
      </trkpt>
      <trkpt lat="43.14538" lon="1.57253">
        <ele>273.703735</ele>
        <time>2013-11-01T15:44:54Z</time>
      </trkpt>
      <trkpt lat="43.14584" lon="1.57245">
        <ele>277.778107</ele>
        <time>2013-11-01T15:45:15Z</time>
      </trkpt>
      <trkpt lat="43.1464" lon="1.57251">
        <ele>269.266815</ele>
        <time>2013-11-01T15:45:36Z</time>
      </trkpt>
      <trkpt lat="43.14692" lon="1.57264">
        <ele>275.249512</ele>
        <time>2013-11-01T15:45:56Z</time>
      </trkpt>
      <trkpt lat="43.14733" lon="1.57304">
        <ele>273.584045</ele>
        <time>2013-11-01T15:46:17Z</time>
      </trkpt>
      <trkpt lat="43.14775" lon="1.57389">
        <ele>279.760101</ele>
        <time>2013-11-01T15:46:38Z</time>
      </trkpt>
      <trkpt lat="43.14814" lon="1.575">
        <ele>280.050659</ele>
        <time>2013-11-01T15:46:59Z</time>
      </trkpt>
      <trkpt lat="43.14884" lon="1.57578">
        <ele>277.556213</ele>
        <time>2013-11-01T15:47:20Z</time>
      </trkpt>
      <trkpt lat="43.14959" lon="1.57665">
        <ele>274.640533</ele>
        <time>2013-11-01T15:47:41Z</time>
      </trkpt>
      <trkpt lat="43.15" lon="1.57838">
        <ele>269.575958</ele>
        <time>2013-11-01T15:48:01Z</time>
      </trkpt>
      <trkpt lat="43.15084" lon="1.58002">
        <ele>266.452332</ele>
        <time>2013-11-01T15:48:22Z</time>
      </trkpt>
      <trkpt lat="43.1517" lon="1.58102">
        <ele>272.106049</ele>
        <time>2013-11-01T15:48:43Z</time>
      </trkpt>
      <trkpt lat="43.15207" lon="1.5819">
        <ele>269.760284</ele>
        <time>2013-11-01T15:49:04Z</time>
      </trkpt>
      <trkpt lat="43.15274" lon="1.58303">
        <ele>262.155457</ele>
        <time>2013-11-01T15:49:25Z</time>
      </trkpt>
      <trkpt lat="43.15334" lon="1.58458">
        <ele>258.240479</ele>
        <time>2013-11-01T15:49:45Z</time>
      </trkpt>
      <trkpt lat="43.1539" lon="1.58514">
        <ele>256.014771</ele>
        <time>2013-11-01T15:50:06Z</time>
      </trkpt>
      <trkpt lat="43.15438" lon="1.58538">
        <ele>264.642548</ele>
        <time>2013-11-01T15:50:27Z</time>
      </trkpt>
      <trkpt lat="43.15415" lon="1.58469">
        <ele>274.696289</ele>
        <time>2013-11-01T15:50:56Z</time>
      </trkpt>
      <trkpt lat="43.15415" lon="1.58405">
        <ele>273.12384</ele>
        <time>2013-11-01T15:51:16Z</time>
      </trkpt>
      <trkpt lat="43.1544" lon="1.58351">
        <ele>276.250641</ele>
        <time>2013-11-01T15:51:41Z</time>
      </trkpt>
      <trkpt lat="43.15474" lon="1.58308">
        <ele>288.048737</ele>
        <time>2013-11-01T15:52:03Z</time>
      </trkpt>
      <trkpt lat="43.15506" lon="1.58264">
        <ele>287.036316</ele>
        <time>2013-11-01T15:52:29Z</time>
      </trkpt>
      <trkpt lat="43.15532" lon="1.58211">
        <ele>297.504211</ele>
        <time>2013-11-01T15:52:53Z</time>
      </trkpt>
      <trkpt lat="43.15567" lon="1.5817">
        <ele>299.079163</ele>
        <time>2013-11-01T15:53:15Z</time>
      </trkpt>
      <trkpt lat="43.15599" lon="1.58126">
        <ele>293.876923</ele>
        <time>2013-11-01T15:53:38Z</time>
      </trkpt>
      <trkpt lat="43.15634" lon="1.58085">
        <ele>307.977295</ele>
        <time>2013-11-01T15:54:05Z</time>
      </trkpt>
      <trkpt lat="43.15672" lon="1.58045">
        <ele>307.234955</ele>
        <time>2013-11-01T15:54:30Z</time>
      </trkpt>
      <trkpt lat="43.15701" lon="1.57995">
        <ele>296.1716</ele>
        <time>2013-11-01T15:54:53Z</time>
      </trkpt>
      <trkpt lat="43.1572" lon="1.57937">
        <ele>298.471802</ele>
        <time>2013-11-01T15:55:15Z</time>
      </trkpt>
      <trkpt lat="43.1575" lon="1.5789">
        <ele>303.062042</ele>
        <time>2013-11-01T15:55:36Z</time>
      </trkpt>
      <trkpt lat="43.15785" lon="1.57847">
        <ele>312.733093</ele>
        <time>2013-11-01T15:55:57Z</time>
      </trkpt>
      <trkpt lat="43.15826" lon="1.5782">
        <ele>326.152863</ele>
        <time>2013-11-01T15:56:19Z</time>
      </trkpt>
      <trkpt lat="43.15869" lon="1.57788">
        <ele>322.158295</ele>
        <time>2013-11-01T15:56:39Z</time>
      </trkpt>
      <trkpt lat="43.15902" lon="1.57743">
        <ele>320.909485</ele>
        <time>2013-11-01T15:57:00Z</time>
      </trkpt>
      <trkpt lat="43.15939" lon="1.57704">
        <ele>320.150787</ele>
        <time>2013-11-01T15:57:25Z</time>
      </trkpt>
      <trkpt lat="43.15994" lon="1.57701">
        <ele>327.042206</ele>
        <time>2013-11-01T15:57:45Z</time>
      </trkpt>
      <trkpt lat="43.16065" lon="1.57688">
        <ele>322.137848</ele>
        <time>2013-11-01T15:58:06Z</time>
      </trkpt>
      <trkpt lat="43.16079" lon="1.57766">
        <ele>324.149475</ele>
        <time>2013-11-01T15:58:27Z</time>
      </trkpt>
      <trkpt lat="43.16044" lon="1.57819">
        <ele>323.062683</ele>
        <time>2013-11-01T15:58:48Z</time>
      </trkpt>
      <trkpt lat="43.16015" lon="1.57877">
        <ele>330.303528</ele>
        <time>2013-11-01T15:59:08Z</time>
      </trkpt>
      <trkpt lat="43.15997" lon="1.57935">
        <ele>331.583679</ele>
        <time>2013-11-01T15:59:30Z</time>
      </trkpt>
      <trkpt lat="43.16001" lon="1.58008">
        <ele>332.944916</ele>
        <time>2013-11-01T15:59:51Z</time>
      </trkpt>
      <trkpt lat="43.16045" lon="1.5799">
        <ele>343.551331</ele>
        <time>2013-11-01T16:00:27Z</time>
      </trkpt>
      <trkpt lat="43.1608" lon="1.5795">
        <ele>339.183289</ele>
        <time>2013-11-01T16:00:51Z</time>
      </trkpt>
      <trkpt lat="43.16124" lon="1.57921">
        <ele>337.998077</ele>
        <time>2013-11-01T16:01:11Z</time>
      </trkpt>
      <trkpt lat="43.16178" lon="1.57882">
        <ele>342.043274</ele>
        <time>2013-11-01T16:01:32Z</time>
      </trkpt>
      <trkpt lat="43.16239" lon="1.57844">
        <ele>341.997284</ele>
        <time>2013-11-01T16:01:53Z</time>
      </trkpt>
      <trkpt lat="43.16297" lon="1.57807">
        <ele>343.963989</ele>
        <time>2013-11-01T16:02:13Z</time>
      </trkpt>
      <trkpt lat="43.16348" lon="1.57771">
        <ele>347.640778</ele>
        <time>2013-11-01T16:02:34Z</time>
      </trkpt>
      <trkpt lat="43.16391" lon="1.5774">
        <ele>351.548309</ele>
        <time>2013-11-01T16:02:54Z</time>
      </trkpt>
      <trkpt lat="43.16427" lon="1.57778">
        <ele>354.968781</ele>
        <time>2013-11-01T16:03:15Z</time>
      </trkpt>
      <trkpt lat="43.16433" lon="1.57839">
        <ele>351.149719</ele>
        <time>2013-11-01T16:03:36Z</time>
      </trkpt>
      <trkpt lat="43.16442" lon="1.57903">
        <ele>354.420349</ele>
        <time>2013-11-01T16:03:58Z</time>
      </trkpt>
      <trkpt lat="43.16479" lon="1.57944">
        <ele>367.027039</ele>
        <time>2013-11-01T16:07:38Z</time>
      </trkpt>
      <trkpt lat="43.16569" lon="1.57954">
        <ele>356.174255</ele>
        <time>2013-11-01T16:07:59Z</time>
      </trkpt>
      <trkpt lat="43.16576" lon="1.58135">
        <ele>357.82196</ele>
        <time>2013-11-01T16:08:19Z</time>
      </trkpt>
      <trkpt lat="43.16695" lon="1.58289">
        <ele>337.5383</ele>
        <time>2013-11-01T16:08:40Z</time>
      </trkpt>
      <trkpt lat="43.16673" lon="1.58353">
        <ele>338.113251</ele>
        <time>2013-11-01T16:09:01Z</time>
      </trkpt>
      <trkpt lat="43.16657" lon="1.58416">
        <ele>322.817291</ele>
        <time>2013-11-01T16:09:40Z</time>
      </trkpt>
      <trkpt lat="43.16656" lon="1.5848">
        <ele>312.258698</ele>
        <time>2013-11-01T16:10:02Z</time>
      </trkpt>
      <trkpt lat="43.16625" lon="1.58526">
        <ele>317.653381</ele>
        <time>2013-11-01T16:10:23Z</time>
      </trkpt>
      <trkpt lat="43.16586" lon="1.58563">
        <ele>333.518738</ele>
        <time>2013-11-01T16:10:43Z</time>
      </trkpt>
      <trkpt lat="43.16551" lon="1.58615">
        <ele>333.451324</ele>
        <time>2013-11-01T16:11:16Z</time>
      </trkpt>
      <trkpt lat="43.16586" lon="1.58561">
        <ele>328.033997</ele>
        <time>2013-11-01T16:11:56Z</time>
      </trkpt>
      <trkpt lat="43.1663" lon="1.58527">
        <ele>325.405548</ele>
        <time>2013-11-01T16:12:16Z</time>
      </trkpt>
      <trkpt lat="43.16644" lon="1.58462">
        <ele>333.327179</ele>
        <time>2013-11-01T16:12:44Z</time>
      </trkpt>
      <trkpt lat="43.16655" lon="1.58401">
        <ele>328.617371</ele>
        <time>2013-11-01T16:13:20Z</time>
      </trkpt>
      <trkpt lat="43.16676" lon="1.58344">
        <ele>335.800232</ele>
        <time>2013-11-01T16:14:04Z</time>
      </trkpt>
      <trkpt lat="43.16721" lon="1.5833">
        <ele>318.761078</ele>
        <time>2013-11-01T16:14:45Z</time>
      </trkpt>
      <trkpt lat="43.16732" lon="1.58431">
        <ele>310.330566</ele>
        <time>2013-11-01T16:15:05Z</time>
      </trkpt>
      <trkpt lat="43.16706" lon="1.5853">
        <ele>298.678284</ele>
        <time>2013-11-01T16:15:26Z</time>
      </trkpt>
      <trkpt lat="43.1669" lon="1.58637">
        <ele>292.826508</ele>
        <time>2013-11-01T16:15:46Z</time>
      </trkpt>
      <trkpt lat="43.16702" lon="1.58697">
        <ele>285.927368</ele>
        <time>2013-11-01T16:16:06Z</time>
      </trkpt>
      <trkpt lat="43.1669" lon="1.58762">
        <ele>283.435669</ele>
        <time>2013-11-01T16:24:37Z</time>
      </trkpt>
      <trkpt lat="43.16659" lon="1.58945">
        <ele>264.028198</ele>
        <time>2013-11-01T16:24:58Z</time>
      </trkpt>
      <trkpt lat="43.16572" lon="1.59091">
        <ele>258.122223</ele>
        <time>2013-11-01T16:25:19Z</time>
      </trkpt>
      <trkpt lat="43.16525" lon="1.59235">
        <ele>254.006866</ele>
        <time>2013-11-01T16:25:39Z</time>
      </trkpt>
      <trkpt lat="43.16501" lon="1.59366">
        <ele>244.990021</ele>
        <time>2013-11-01T16:26:00Z</time>
      </trkpt>
      <trkpt lat="43.16483" lon="1.59526">
        <ele>237.733063</ele>
        <time>2013-11-01T16:26:20Z</time>
      </trkpt>
      <trkpt lat="43.16462" lon="1.59701">
        <ele>250.303955</ele>
        <time>2013-11-01T16:26:41Z</time>
      </trkpt>
      <trkpt lat="43.16465" lon="1.59795">
        <ele>254.617188</ele>
        <time>2013-11-01T16:27:01Z</time>
      </trkpt>
      <trkpt lat="43.16519" lon="1.598">
        <ele>248.875183</ele>
        <time>2013-11-01T16:27:22Z</time>
      </trkpt>
      <trkpt lat="43.16495" lon="1.59854">
        <ele>253.887604</ele>
        <time>2013-11-01T16:27:47Z</time>
      </trkpt>
      <trkpt lat="43.16451" lon="1.59873">
        <ele>252.280457</ele>
        <time>2013-11-01T16:28:07Z</time>
      </trkpt>
      <trkpt lat="43.16404" lon="1.59897">
        <ele>255.148773</ele>
        <time>2013-11-01T16:28:27Z</time>
      </trkpt>
      <trkpt lat="43.16349" lon="1.59924">
        <ele>257.538422</ele>
        <time>2013-11-01T16:28:48Z</time>
      </trkpt>
      <trkpt lat="43.16293" lon="1.5995">
        <ele>265.928131</ele>
        <time>2013-11-01T16:29:09Z</time>
      </trkpt>
      <trkpt lat="43.16244" lon="1.59973">
        <ele>267.333771</ele>
        <time>2013-11-01T16:29:29Z</time>
      </trkpt>
      <trkpt lat="43.16183" lon="1.5999">
        <ele>266.862427</ele>
        <time>2013-11-01T16:29:49Z</time>
      </trkpt>
      <trkpt lat="43.16111" lon="1.60007">
        <ele>267.776611</ele>
        <time>2013-11-01T16:30:10Z</time>
      </trkpt>
      <trkpt lat="43.16026" lon="1.60023">
        <ele>271.040649</ele>
        <time>2013-11-01T16:30:31Z</time>
      </trkpt>
      <trkpt lat="43.15947" lon="1.60041">
        <ele>269.734985</ele>
        <time>2013-11-01T16:30:51Z</time>
      </trkpt>
      <trkpt lat="43.15867" lon="1.60059">
        <ele>271.041931</ele>
        <time>2013-11-01T16:31:12Z</time>
      </trkpt>
      <trkpt lat="43.15783" lon="1.60076">
        <ele>267.893005</ele>
        <time>2013-11-01T16:31:33Z</time>
      </trkpt>
      <trkpt lat="43.15715" lon="1.60095">
        <ele>269.595032</ele>
        <time>2013-11-01T16:31:53Z</time>
      </trkpt>
      <trkpt lat="43.15648" lon="1.60115">
        <ele>271.286652</ele>
        <time>2013-11-01T16:32:14Z</time>
      </trkpt>
      <trkpt lat="43.15579" lon="1.60133">
        <ele>268.773285</ele>
        <time>2013-11-01T16:32:35Z</time>
      </trkpt>
      <trkpt lat="43.15508" lon="1.60155">
        <ele>268.9328</ele>
        <time>2013-11-01T16:32:56Z</time>
      </trkpt>
      <trkpt lat="43.15447" lon="1.60177">
        <ele>271.744965</ele>
        <time>2013-11-01T16:33:16Z</time>
      </trkpt>
      <trkpt lat="43.15381" lon="1.60195">
        <ele>273.962067</ele>
        <time>2013-11-01T16:33:37Z</time>
      </trkpt>
      <trkpt lat="43.15314" lon="1.60213">
        <ele>270.453857</ele>
        <time>2013-11-01T16:33:58Z</time>
      </trkpt>
      <trkpt lat="43.15249" lon="1.60229">
        <ele>270.9422</ele>
        <time>2013-11-01T16:34:18Z</time>
      </trkpt>
      <trkpt lat="43.15185" lon="1.60239">
        <ele>271.303131</ele>
        <time>2013-11-01T16:34:38Z</time>
      </trkpt>
      <trkpt lat="43.1516" lon="1.60148">
        <ele>274.940613</ele>
        <time>2013-11-01T16:34:58Z</time>
      </trkpt>
      <trkpt lat="43.15151" lon="1.60042">
        <ele>267.934814</ele>
        <time>2013-11-01T16:35:19Z</time>
      </trkpt>
      <trkpt lat="43.15136" lon="1.59901">
        <ele>266.258026</ele>
        <time>2013-11-01T16:35:40Z</time>
      </trkpt>
      <trkpt lat="43.15126" lon="1.59788">
        <ele>272.805542</ele>
        <time>2013-11-01T16:36:00Z</time>
      </trkpt>
      <trkpt lat="43.15113" lon="1.59655">
        <ele>271.178925</ele>
        <time>2013-11-01T16:36:21Z</time>
      </trkpt>
      <trkpt lat="43.15065" lon="1.59578">
        <ele>267.365753</ele>
        <time>2013-11-01T16:36:42Z</time>
      </trkpt>
      <trkpt lat="43.15001" lon="1.59564">
        <ele>270.977203</ele>
        <time>2013-11-01T16:37:02Z</time>
      </trkpt>
      <trkpt lat="43.14919" lon="1.59612">
        <ele>262.097198</ele>
        <time>2013-11-01T16:37:23Z</time>
      </trkpt>
      <trkpt lat="43.1486" lon="1.59612">
        <ele>263.574829</ele>
        <time>2013-11-01T16:37:43Z</time>
      </trkpt>
      <trkpt lat="43.14818" lon="1.5964">
        <ele>269.978912</ele>
        <time>2013-11-01T16:51:05Z</time>
      </trkpt>
      <trkpt lat="43.14746" lon="1.59696">
        <ele>267.824463</ele>
        <time>2013-11-01T16:51:25Z</time>
      </trkpt>
      <trkpt lat="43.14656" lon="1.59761">
        <ele>268.719879</ele>
        <time>2013-11-01T16:51:46Z</time>
      </trkpt>
      <trkpt lat="43.14548" lon="1.59817">
        <ele>262.848724</ele>
        <time>2013-11-01T16:52:06Z</time>
      </trkpt>
      <trkpt lat="43.14449" lon="1.5997">
        <ele>259.69043</ele>
        <time>2013-11-01T16:52:27Z</time>
      </trkpt>
      <trkpt lat="43.14354" lon="1.60052">
        <ele>258.273285</ele>
        <time>2013-11-01T16:52:47Z</time>
      </trkpt>
      <trkpt lat="43.14274" lon="1.60121">
        <ele>259.644135</ele>
        <time>2013-11-01T16:53:08Z</time>
      </trkpt>
      <trkpt lat="43.1421" lon="1.60196">
        <ele>259.910553</ele>
        <time>2013-11-01T16:53:28Z</time>
      </trkpt>
      <trkpt lat="43.14132" lon="1.60226">
        <ele>260.686005</ele>
        <time>2013-11-01T16:53:49Z</time>
      </trkpt>
      <trkpt lat="43.14043" lon="1.60201">
        <ele>260.164307</ele>
        <time>2013-11-01T16:54:10Z</time>
      </trkpt>
      <trkpt lat="43.13955" lon="1.6018">
        <ele>263.863525</ele>
        <time>2013-11-01T16:54:30Z</time>
      </trkpt>
      <trkpt lat="43.13856" lon="1.60154">
        <ele>265.49231</ele>
        <time>2013-11-01T16:54:51Z</time>
      </trkpt>
      <trkpt lat="43.13776" lon="1.60129">
        <ele>266.856659</ele>
        <time>2013-11-01T16:55:12Z</time>
      </trkpt>
      <trkpt lat="43.13766" lon="1.60044">
        <ele>253.389526</ele>
        <time>2013-11-01T16:55:32Z</time>
      </trkpt>
      <trkpt lat="43.13668" lon="1.60007">
        <ele>265.944</ele>
        <time>2013-11-01T16:55:52Z</time>
      </trkpt>
      <trkpt lat="43.1356" lon="1.60047">
        <ele>252.218597</ele>
        <time>2013-11-01T16:56:13Z</time>
      </trkpt>
      <trkpt lat="43.13478" lon="1.60056">
        <ele>261.157501</ele>
        <time>2013-11-01T16:56:34Z</time>
      </trkpt>
      <trkpt lat="43.13408" lon="1.60069">
        <ele>266.828796</ele>
        <time>2013-11-01T16:56:54Z</time>
      </trkpt>
      <trkpt lat="43.13371" lon="1.60117">
        <ele>269.374573</ele>
        <time>2013-11-01T16:57:14Z</time>
      </trkpt>
      <trkpt lat="43.13318" lon="1.60201">
        <ele>262.093536</ele>
        <time>2013-11-01T16:57:34Z</time>
      </trkpt>
      <trkpt lat="43.13259" lon="1.60288">
        <ele>263.746674</ele>
        <time>2013-11-01T16:57:55Z</time>
      </trkpt>
      <trkpt lat="43.13241" lon="1.604">
        <ele>261.159607</ele>
        <time>2013-11-01T16:58:15Z</time>
      </trkpt>
      <trkpt lat="43.13164" lon="1.60461">
        <ele>262.611145</ele>
        <time>2013-11-01T16:58:36Z</time>
      </trkpt>
      <trkpt lat="43.13095" lon="1.60525">
        <ele>266.148651</ele>
        <time>2013-11-01T16:58:57Z</time>
      </trkpt>
      <trkpt lat="43.13033" lon="1.60571">
        <ele>266.256683</ele>
        <time>2013-11-01T16:59:18Z</time>
      </trkpt>
      <trkpt lat="43.1297" lon="1.60603">
        <ele>266.396118</ele>
        <time>2013-11-01T16:59:38Z</time>
      </trkpt>
      <trkpt lat="43.12902" lon="1.60639">
        <ele>261.43634</ele>
        <time>2013-11-01T16:59:59Z</time>
      </trkpt>
      <trkpt lat="43.12845" lon="1.60707">
        <ele>258.766785</ele>
        <time>2013-11-01T17:00:19Z</time>
      </trkpt>
      <trkpt lat="43.12784" lon="1.60751">
        <ele>260.563721</ele>
        <time>2013-11-01T17:00:39Z</time>
      </trkpt>
      <trkpt lat="43.12721" lon="1.60789">
        <ele>262.474548</ele>
        <time>2013-11-01T17:01:00Z</time>
      </trkpt>
      <trkpt lat="43.12658" lon="1.60801">
        <ele>263.980042</ele>
        <time>2013-11-01T17:01:20Z</time>
      </trkpt>
      <trkpt lat="43.12603" lon="1.60828">
        <ele>268.695801</ele>
        <time>2013-11-01T17:01:41Z</time>
      </trkpt>
      <trkpt lat="43.12561" lon="1.60848">
        <ele>271.580383</ele>
        <time>2013-11-01T17:02:04Z</time>
      </trkpt>
      <trkpt lat="43.1252" lon="1.60875">
        <ele>270.933197</ele>
        <time>2013-11-01T17:02:26Z</time>
      </trkpt>
      <trkpt lat="43.12463" lon="1.60913">
        <ele>272.197357</ele>
        <time>2013-11-01T17:02:46Z</time>
      </trkpt>
      <trkpt lat="43.12397" lon="1.60957">
        <ele>270.402557</ele>
        <time>2013-11-01T17:03:07Z</time>
      </trkpt>
      <trkpt lat="43.12329" lon="1.60998">
        <ele>269.337219</ele>
        <time>2013-11-01T17:03:28Z</time>
      </trkpt>
      <trkpt lat="43.12258" lon="1.60998">
        <ele>268.810913</ele>
        <time>2013-11-01T17:03:48Z</time>
      </trkpt>
      <trkpt lat="43.12237" lon="1.60929">
        <ele>267.419556</ele>
        <time>2013-11-01T17:04:09Z</time>
      </trkpt>
      <trkpt lat="43.12228" lon="1.60866">
        <ele>271.882294</ele>
        <time>2013-11-01T17:04:40Z</time>
      </trkpt>
      <trkpt lat="43.12257" lon="1.6078">
        <ele>273.73288</ele>
        <time>2013-11-01T17:05:59Z</time>
      </trkpt>
    </trkseg>
  </trk>
</gpx>